createdAt,value
2017-01-11T00:00:29.174Z,4.83
2017-01-11T00:01:34.374Z,4.88
2017-01-11T00:02:39.695Z,4.86
2017-01-11T00:03:44.538Z,4.89
2017-01-11T00:04:49.742Z,4.91
2017-01-11T00:05:54.944Z,4.89
2017-01-11T00:07:00.216Z,4.95
2017-01-11T00:08:05.415Z,4.92
2017-01-11T00:09:10.698Z,5.01
2017-01-11T00:10:16.869Z,4.95
2017-01-11T00:11:23.052Z,4.98
2017-01-11T00:12:29.236Z,4.95
2017-01-11T00:13:35.408Z,4.98
2017-01-11T00:14:39.780Z,4.99
2017-01-11T00:15:44.074Z,5.04
2017-01-11T00:16:50.211Z,4.95
2017-01-11T00:17:56.385Z,4.96
2017-01-11T00:19:02.553Z,4.95
2017-01-11T00:20:07.755Z,4.95
2017-01-11T00:21:13.936Z,5.01
2017-01-11T00:22:19.891Z,4.95
2017-01-11T00:23:26.054Z,4.95
2017-01-11T00:24:32.233Z,4.95
2017-01-11T00:25:38.405Z,4.86
2017-01-11T00:26:43.593Z,4.94
2017-01-11T00:27:48.766Z,4.96
2017-01-11T00:28:54.924Z,4.94
2017-01-11T00:30:01.094Z,4.95
2017-01-11T00:31:05.327Z,4.92
2017-01-11T00:32:11.512Z,4.94
2017-01-11T00:33:17.799Z,4.94
2017-01-11T00:34:48.604Z,4.95
2017-01-11T00:35:54.769Z,4.95
2017-01-11T00:37:00.946Z,4.99
2017-01-11T00:38:07.122Z,4.94
2017-01-11T00:39:13.281Z,5.02
2017-01-11T00:40:19.459Z,4.98
2017-01-11T00:41:25.629Z,4.95
2017-01-11T00:42:31.809Z,4.94
2017-01-11T00:43:37.973Z,4.95
2017-01-11T00:44:43.174Z,4.96
2017-01-11T00:45:48.342Z,4.96
2017-01-11T00:46:53.531Z,5.01
2017-01-11T00:47:59.770Z,5.02
2017-01-11T00:49:04.947Z,5.04
2017-01-11T00:50:11.248Z,4.98
2017-01-11T00:51:17.420Z,4.96
2017-01-11T00:52:23.588Z,4.96
2017-01-11T00:53:29.760Z,4.96
2017-01-11T00:54:33.970Z,4.98
2017-01-11T00:55:40.314Z,4.88
2017-01-11T00:56:45.554Z,4.94
2017-01-11T00:57:51.777Z,4.91
2017-01-11T00:58:57.943Z,4.96
2017-01-11T01:00:03.120Z,4.95
2017-01-11T01:01:08.318Z,4.95
2017-01-11T01:02:13.517Z,4.95
2017-01-11T01:03:19.721Z,4.92
2017-01-11T01:04:25.883Z,4.92
2017-01-11T01:05:31.074Z,4.95
2017-01-11T01:06:37.255Z,4.95
2017-01-11T01:07:43.430Z,4.92
2017-01-11T01:08:47.660Z,4.96
2017-01-11T01:09:53.829Z,4.96
2017-01-11T01:11:00.004Z,4.98
2017-01-11T01:12:06.211Z,4.96
2017-01-11T01:13:12.332Z,5.01
2017-01-11T01:14:14.687Z,4.95
2017-01-11T01:15:20.858Z,5.01
2017-01-11T01:16:26.120Z,5.02
2017-01-11T01:17:31.339Z,4.96
2017-01-11T01:18:37.202Z,5.02
2017-01-11T01:19:43.477Z,5.04
2017-01-11T01:20:49.644Z,5.02
2017-01-11T01:21:55.853Z,4.99
2017-01-11T01:23:02.020Z,5.12
2017-01-11T01:24:07.330Z,5.13
2017-01-11T01:25:12.528Z,5.02
2017-01-11T01:26:18.697Z,5.13
2017-01-11T01:27:23.908Z,5.1
2017-01-11T01:28:29.120Z,4.94
2017-01-11T01:29:35.288Z,5.04
2017-01-11T01:30:41.454Z,4.95
2017-01-11T01:31:47.627Z,5.04
2017-01-11T01:32:52.829Z,5.02
2017-01-11T01:33:58.993Z,5.02
2017-01-11T01:35:04.251Z,4.99
2017-01-11T01:36:10.470Z,5.01
2017-01-11T01:37:16.595Z,5.02
2017-01-11T01:38:22.770Z,4.99
2017-01-11T01:39:27.978Z,5.02
2017-01-11T01:40:33.176Z,5.04
2017-01-11T01:41:38.382Z,5.02
2017-01-11T01:42:44.576Z,4.95
2017-01-11T01:43:50.708Z,5.04
2017-01-11T01:44:56.002Z,4.98
2017-01-11T01:46:01.172Z,5.04
2017-01-11T01:47:07.415Z,5.02
2017-01-11T01:48:13.610Z,5.09
2017-01-11T01:49:19.764Z,5.13
2017-01-11T01:50:25.928Z,5.09
2017-01-11T01:51:32.098Z,5.07
2017-01-11T01:52:36.326Z,5.05
2017-01-11T01:53:41.527Z,5.04
2017-01-11T01:54:47.697Z,4.98
2017-01-11T01:55:53.877Z,5.02
2017-01-11T01:57:00.032Z,5.02
2017-01-11T01:58:05.234Z,5.01
2017-01-11T01:59:10.431Z,4.94
2017-01-11T02:00:16.590Z,4.94
2017-01-11T02:01:19.870Z,4.89
2017-01-11T02:02:26.007Z,4.98
2017-01-11T02:03:31.208Z,4.99
2017-01-11T02:04:36.460Z,5.09
2017-01-11T02:05:42.628Z,5.04
2017-01-11T02:06:47.858Z,5.04
2017-01-11T02:07:54.034Z,5.07
2017-01-11T02:08:59.228Z,4.96
2017-01-11T02:10:05.412Z,5.13
2017-01-11T02:11:11.578Z,5.1
2017-01-11T02:12:17.746Z,5.09
2017-01-11T02:13:21.977Z,5.12
2017-01-11T02:14:27.176Z,5.13
2017-01-11T02:15:31.423Z,5.17
2017-01-11T02:16:37.594Z,5.17
2017-01-11T02:17:43.767Z,5.12
2017-01-11T02:18:49.930Z,5.13
2017-01-11T02:19:55.131Z,5.16
2017-01-11T02:21:00.455Z,5.13
2017-01-11T02:22:06.644Z,5.12
2017-01-11T02:23:11.882Z,5.04
2017-01-11T02:24:18.040Z,5.14
2017-01-11T02:25:23.235Z,5.13
2017-01-11T02:26:27.467Z,5.01
2017-01-11T02:27:33.623Z,4.98
2017-01-11T02:28:38.833Z,5.02
2017-01-11T02:29:45.007Z,5.04
2017-01-11T02:30:50.180Z,4.99
2017-01-11T02:31:54.377Z,4.95
2017-01-11T02:32:58.668Z,4.95
2017-01-11T02:34:02.900Z,4.99
2017-01-11T02:35:09.069Z,4.95
2017-01-11T02:36:15.235Z,4.89
2017-01-11T02:37:18.494Z,4.96
2017-01-11T02:38:24.703Z,4.98
2017-01-11T02:39:30.834Z,4.98
2017-01-11T02:40:37.005Z,4.95
2017-01-11T02:42:48.337Z,4.96
2017-01-11T02:43:54.501Z,5.01
2017-01-11T02:44:58.700Z,4.98
2017-01-11T02:46:03.901Z,4.98
2017-01-11T02:47:08.172Z,4.95
2017-01-11T02:48:14.297Z,4.96
2017-01-11T02:49:20.465Z,4.92
2017-01-11T02:50:25.070Z,4.92
2017-01-11T02:51:31.252Z,4.96
2017-01-11T02:52:36.587Z,4.95
2017-01-11T02:53:41.783Z,4.94
2017-01-11T02:54:46.959Z,4.96
2017-01-11T02:55:52.136Z,4.89
2017-01-11T02:56:58.353Z,4.92
2017-01-11T02:58:04.470Z,4.88
2017-01-11T02:59:10.633Z,4.92
2017-01-11T03:00:16.796Z,4.8
2017-01-11T03:01:22.969Z,4.92
2017-01-11T03:02:28.202Z,4.86
2017-01-11T03:03:34.332Z,4.84
2017-01-11T03:04:40.498Z,4.86
2017-01-11T03:05:46.678Z,4.86
2017-01-11T03:06:52.842Z,4.91
2017-01-11T03:07:59.007Z,4.86
2017-01-11T03:09:04.345Z,4.84
2017-01-11T03:10:10.586Z,4.88
2017-01-11T03:11:14.744Z,4.86
2017-01-11T03:12:20.951Z,4.89
2017-01-11T03:13:27.116Z,4.86
2017-01-11T03:14:32.315Z,4.86
2017-01-11T03:15:38.507Z,4.88
2017-01-11T03:16:43.705Z,4.88
2017-01-11T03:17:48.900Z,4.86
2017-01-11T03:18:54.112Z,4.84
2017-01-11T03:19:59.305Z,4.86
2017-01-11T03:21:04.505Z,4.84
2017-01-11T03:22:09.705Z,4.83
2017-01-11T03:23:14.898Z,4.83
2017-01-11T03:24:19.154Z,4.8
2017-01-11T03:25:24.366Z,4.8
2017-01-11T03:26:30.528Z,4.77
2017-01-11T03:27:36.698Z,4.76
2017-01-11T03:28:42.895Z,4.8
2017-01-11T03:29:49.061Z,4.73
2017-01-11T03:30:55.233Z,4.8
2017-01-11T03:32:00.450Z,4.8
2017-01-11T03:33:06.578Z,4.83
2017-01-11T03:34:11.776Z,4.83
2017-01-11T03:35:16.971Z,4.89
2017-01-11T03:36:23.138Z,4.77
2017-01-11T03:37:28.317Z,4.79
2017-01-11T03:38:32.539Z,4.79
2017-01-11T03:39:38.712Z,4.73
2017-01-11T03:40:43.912Z,4.75
2017-01-11T03:41:50.191Z,4.73
2017-01-11T03:42:55.304Z,4.77
2017-01-11T03:44:00.501Z,4.7
2017-01-11T03:45:06.662Z,4.84
2017-01-11T03:46:11.860Z,4.83
2017-01-11T03:47:15.099Z,4.83
2017-01-11T03:48:21.268Z,4.83
2017-01-11T03:49:27.430Z,4.77
2017-01-11T03:50:33.594Z,4.77
2017-01-11T03:51:38.789Z,4.83
2017-01-11T03:52:44.969Z,4.83
2017-01-11T03:53:51.133Z,4.73
2017-01-11T03:54:57.303Z,4.79
2017-01-11T03:56:02.509Z,4.79
2017-01-11T03:57:08.672Z,4.88
2017-01-11T03:58:14.842Z,4.84
2017-01-11T03:59:21.056Z,4.88
2017-01-11T04:00:27.239Z,4.8
2017-01-11T04:01:33.467Z,4.86
2017-01-11T04:02:38.668Z,4.8
2017-01-11T04:03:44.840Z,4.88
2017-01-11T04:04:51.006Z,4.86
2017-01-11T04:05:55.207Z,4.83
2017-01-11T04:07:00.558Z,4.92
2017-01-11T04:08:05.746Z,4.89
2017-01-11T04:09:11.959Z,4.8
2017-01-11T04:10:17.116Z,4.89
2017-01-11T04:11:23.282Z,4.86
2017-01-11T04:12:28.513Z,4.79
2017-01-11T04:13:31.751Z,4.88
2017-01-11T04:14:36.948Z,4.86
2017-01-11T04:15:43.247Z,4.89
2017-01-11T04:16:49.391Z,4.92
2017-01-11T04:17:54.565Z,4.96
2017-01-11T04:19:00.731Z,4.92
2017-01-11T04:20:06.914Z,4.96
2017-01-11T04:21:13.075Z,4.94
2017-01-11T04:22:19.336Z,4.98
2017-01-11T04:23:23.670Z,4.96
2017-01-11T04:24:27.870Z,4.98
2017-01-11T04:25:33.067Z,4.91
2017-01-11T04:26:37.329Z,4.92
2017-01-11T04:27:43.494Z,4.98
2017-01-11T04:28:49.671Z,4.99
2017-01-11T04:29:55.838Z,4.94
2017-01-11T04:31:01.062Z,4.98
2017-01-11T04:32:06.254Z,5.05
2017-01-11T04:33:12.426Z,4.98
2017-01-11T04:34:18.595Z,4.95
2017-01-11T04:35:24.798Z,5.01
2017-01-11T04:36:30.933Z,4.89
2017-01-11T04:37:35.163Z,5.01
2017-01-11T04:38:41.293Z,4.95
2017-01-11T04:39:47.462Z,4.98
2017-01-11T04:40:51.697Z,4.94
2017-01-11T04:41:56.871Z,4.98
2017-01-11T04:43:03.031Z,4.95
2017-01-11T04:44:09.264Z,5.01
2017-01-11T04:45:14.468Z,4.91
2017-01-11T04:46:19.385Z,4.95
2017-01-11T04:47:25.547Z,4.98
2017-01-11T04:48:30.743Z,4.94
2017-01-11T04:49:36.912Z,4.91
2017-01-11T04:50:42.102Z,5.02
2017-01-11T04:51:46.323Z,5.04
2017-01-11T04:52:51.522Z,4.98
2017-01-11T04:53:57.687Z,5.04
2017-01-11T04:55:02.880Z,5.07
2017-01-11T04:56:08.057Z,5.09
2017-01-11T04:57:13.256Z,5.12
2017-01-11T04:58:18.439Z,5.07
2017-01-11T04:59:23.634Z,5.05
2017-01-11T05:00:29.797Z,5.12
2017-01-11T05:01:35.964Z,5.13
2017-01-11T05:02:42.252Z,5.07
2017-01-11T05:03:47.452Z,4.99
2017-01-11T05:04:53.625Z,5.04
2017-01-11T05:05:59.849Z,5.05
2017-01-11T05:07:06.017Z,4.95
2017-01-11T05:08:12.178Z,5.04
2017-01-11T05:09:17.376Z,5.02
2017-01-11T05:10:22.575Z,5.02
2017-01-11T05:11:27.779Z,5.01
2017-01-11T05:12:33.950Z,5.02
2017-01-11T05:13:39.146Z,4.98
2017-01-11T05:14:45.349Z,5.05
2017-01-11T05:15:51.494Z,4.92
2017-01-11T05:16:56.667Z,4.99
2017-01-11T05:18:02.841Z,4.96
2017-01-11T05:19:09.005Z,4.96
2017-01-11T05:20:15.280Z,4.98
2017-01-11T05:21:20.476Z,4.91
2017-01-11T05:22:25.675Z,4.98
2017-01-11T05:23:31.837Z,4.95
2017-01-11T05:24:38.052Z,4.91
2017-01-11T05:25:43.251Z,4.94
2017-01-11T05:26:48.444Z,4.95
2017-01-11T05:27:54.612Z,4.91
2017-01-11T05:29:00.773Z,4.96
2017-01-11T05:30:06.953Z,5.01
2017-01-11T05:31:13.140Z,4.96
2017-01-11T05:32:18.315Z,4.91
2017-01-11T05:33:23.513Z,4.98
2017-01-11T05:34:29.678Z,4.89
2017-01-11T05:35:35.904Z,4.86
2017-01-11T05:36:41.101Z,4.91
2017-01-11T05:37:47.264Z,4.88
2017-01-11T05:38:53.433Z,4.89
2017-01-11T05:39:59.648Z,4.8
2017-01-11T05:41:04.846Z,4.88
2017-01-11T05:42:11.040Z,4.88
2017-01-11T05:43:17.176Z,4.86
2017-01-11T05:44:22.374Z,4.88
2017-01-11T05:45:28.538Z,4.86
2017-01-11T05:46:34.724Z,4.92
2017-01-11T05:47:39.957Z,4.96
2017-01-11T05:48:45.202Z,4.95
2017-01-11T05:49:51.368Z,4.96
2017-01-11T05:50:56.544Z,4.95
2017-01-11T05:52:02.702Z,4.95
2017-01-11T05:53:08.599Z,4.98
2017-01-11T05:54:13.798Z,5.01
2017-01-11T05:55:20.089Z,4.94
2017-01-11T05:56:24.220Z,4.98
2017-01-11T05:57:30.386Z,4.96
2017-01-11T05:58:36.552Z,4.95
2017-01-11T05:59:42.720Z,4.95
2017-01-11T06:00:47.990Z,4.99
2017-01-11T06:01:54.172Z,4.96
2017-01-11T06:02:59.412Z,4.95
2017-01-11T06:04:04.613Z,4.95
2017-01-11T06:05:08.816Z,5.01
2017-01-11T06:06:14.987Z,4.95
2017-01-11T06:07:21.208Z,4.96
2017-01-11T06:09:32.544Z,4.98
2017-01-11T06:10:38.713Z,4.89
2017-01-11T06:11:43.951Z,4.96
2017-01-11T06:12:50.219Z,4.96
2017-01-11T06:13:54.803Z,5.04
2017-01-11T06:15:00.008Z,5.12
2017-01-11T06:16:06.231Z,5.02
2017-01-11T06:17:12.399Z,5.1
2017-01-11T06:18:17.594Z,5.07
2017-01-11T06:19:23.813Z,5.12
2017-01-11T06:20:28.029Z,5.05
2017-01-11T06:21:33.201Z,5.12
2017-01-11T06:22:39.368Z,5.12
2017-01-11T06:23:45.531Z,5.14
2017-01-11T06:24:51.737Z,5.17
2017-01-11T06:25:57.863Z,5.13
2017-01-11T06:27:04.032Z,5.14
2017-01-11T06:28:08.238Z,5.2
2017-01-11T06:29:13.438Z,5.13
2017-01-11T06:30:19.607Z,5.2
2017-01-11T06:31:25.804Z,5.13
2017-01-11T06:32:30.973Z,5.14
2017-01-11T06:33:36.174Z,5.25
2017-01-11T06:34:42.342Z,5.25
2017-01-11T06:35:46.575Z,5.22
2017-01-11T06:36:49.817Z,5.23
2017-01-11T06:37:55.033Z,5.25
2017-01-11T06:39:01.225Z,5.22
2017-01-11T06:40:07.360Z,5.25
2017-01-11T06:41:13.529Z,5.23
2017-01-11T06:42:19.707Z,5.19
2017-01-11T06:43:25.935Z,5.19
2017-01-11T06:44:30.405Z,5.25
2017-01-11T06:45:36.575Z,5.17
2017-01-11T06:46:42.744Z,5.13
2017-01-11T06:47:48.917Z,5.2
2017-01-11T06:48:54.118Z,5.12
2017-01-11T06:49:59.308Z,5.1
2017-01-11T06:51:04.613Z,5.14
2017-01-11T06:52:10.787Z,5.14
2017-01-11T06:53:16.957Z,5.17
2017-01-11T06:54:23.128Z,5.16
2017-01-11T06:55:29.289Z,5.17
2017-01-11T06:56:35.462Z,5.17
2017-01-11T06:57:41.630Z,5.14
2017-01-11T06:58:45.829Z,5.14
2017-01-11T06:59:51.982Z,5.14
2017-01-11T07:00:58.150Z,5.13
2017-01-11T07:02:04.316Z,5.17
2017-01-11T07:03:10.478Z,5.13
2017-01-11T07:04:16.662Z,5.22
2017-01-11T07:05:20.874Z,5.16
2017-01-11T07:06:27.104Z,5.16
2017-01-11T07:07:33.274Z,5.22
2017-01-11T07:08:39.441Z,5.17
2017-01-11T07:09:44.668Z,5.13
2017-01-11T07:10:50.813Z,5.14
2017-01-11T07:11:55.991Z,5.14
2017-01-11T07:13:01.181Z,5.09
2017-01-11T07:14:07.345Z,5.14
2017-01-11T07:15:13.519Z,5.09
2017-01-11T07:16:18.728Z,5.1
2017-01-11T07:17:22.936Z,5.17
2017-01-11T07:18:28.129Z,5.27
2017-01-11T07:19:34.285Z,5.19
2017-01-11T07:20:40.453Z,5.2
2017-01-11T07:21:46.625Z,5.22
2017-01-11T07:22:52.833Z,5.19
2017-01-11T07:23:58.972Z,5.16
2017-01-11T07:25:05.137Z,5.27
2017-01-11T07:26:10.954Z,5.3
2017-01-11T07:27:17.117Z,5.23
2017-01-11T07:28:21.487Z,5.19
2017-01-11T07:29:27.726Z,5.22
2017-01-11T07:30:33.899Z,5.25
2017-01-11T07:31:40.067Z,5.22
2017-01-11T07:32:46.255Z,5.19
2017-01-11T07:33:52.411Z,5.22
2017-01-11T07:34:58.710Z,5.34
2017-01-11T07:36:03.817Z,5.27
2017-01-11T07:37:09.029Z,5.27
2017-01-11T07:38:14.224Z,5.22
2017-01-11T07:39:19.425Z,5.31
2017-01-11T07:40:24.664Z,5.34
2017-01-11T07:41:30.956Z,5.38
2017-01-11T07:42:37.116Z,5.35
2017-01-11T07:43:43.300Z,5.45
2017-01-11T07:44:48.480Z,5.35
2017-01-11T07:45:54.650Z,5.34
2017-01-11T07:46:59.855Z,5.35
2017-01-11T07:48:05.059Z,5.32
2017-01-11T07:49:10.260Z,5.49
2017-01-11T07:50:15.571Z,5.43
2017-01-11T07:51:21.730Z,5.41
2017-01-11T07:52:26.935Z,5.48
2017-01-11T07:53:33.095Z,5.45
2017-01-11T07:54:39.304Z,5.46
2017-01-11T07:55:45.470Z,5.49
2017-01-11T07:56:51.686Z,5.4
2017-01-11T07:57:57.853Z,5.45
2017-01-11T07:59:04.019Z,5.49
2017-01-11T08:00:08.590Z,5.41
2017-01-11T08:01:13.748Z,5.53
2017-01-11T08:02:19.919Z,5.53
2017-01-11T08:03:26.134Z,5.5
2017-01-11T08:04:31.680Z,5.55
2017-01-11T08:05:37.837Z,5.59
2017-01-11T08:06:44.018Z,5.55
2017-01-11T08:07:49.213Z,5.6
2017-01-11T08:08:54.422Z,5.6
2017-01-11T08:09:59.601Z,5.63
2017-01-11T08:11:04.817Z,5.78
2017-01-11T08:12:10.996Z,5.71
2017-01-11T08:13:15.227Z,5.71
2017-01-11T08:14:21.405Z,5.71
2017-01-11T08:15:25.735Z,5.73
2017-01-11T08:16:31.902Z,5.64
2017-01-11T08:17:38.100Z,5.74
2017-01-11T08:18:44.267Z,5.7
2017-01-11T08:19:49.455Z,5.77
2017-01-11T08:20:55.639Z,5.82
2017-01-11T08:22:01.859Z,5.78
2017-01-11T08:23:06.057Z,5.81
2017-01-11T08:24:10.257Z,5.89
2017-01-11T08:25:15.460Z,5.86
2017-01-11T08:26:19.690Z,5.95
2017-01-11T08:27:25.863Z,5.96
2017-01-11T08:28:31.056Z,5.96
2017-01-11T08:29:37.221Z,5.95
2017-01-11T08:30:43.400Z,5.96
2017-01-11T08:31:49.564Z,5.93
2017-01-11T08:32:53.805Z,5.98
2017-01-11T08:34:00.050Z,6.03
2017-01-11T08:35:02.671Z,6.06
2017-01-11T08:36:08.845Z,5.96
2017-01-11T08:37:15.011Z,5.98
2017-01-11T08:38:20.260Z,5.93
2017-01-11T08:39:26.438Z,5.95
2017-01-11T08:40:30.749Z,5.95
2017-01-11T08:41:36.920Z,6.01
2017-01-11T08:42:43.197Z,6.07
2017-01-11T08:43:49.370Z,6.01
2017-01-11T08:44:55.537Z,6
2017-01-11T08:46:00.747Z,6.07
2017-01-11T08:47:06.920Z,6.07
2017-01-11T08:48:13.092Z,6.1
2017-01-11T08:49:19.344Z,6.07
2017-01-11T08:50:25.510Z,6.09
2017-01-11T08:51:31.683Z,6.1
2017-01-11T08:52:37.870Z,6
2017-01-11T08:53:44.061Z,5.98
2017-01-11T08:54:50.235Z,6.01
2017-01-11T08:55:56.417Z,5.96
2017-01-11T08:57:02.647Z,5.91
2017-01-11T08:58:07.833Z,5.89
2017-01-11T08:59:13.959Z,5.86
2017-01-11T09:00:20.134Z,5.86
2017-01-11T09:01:25.328Z,5.88
2017-01-11T09:02:31.496Z,5.85
2017-01-11T09:03:35.722Z,5.89
2017-01-11T09:04:40.921Z,5.88
2017-01-11T09:05:47.202Z,5.83
2017-01-11T09:06:53.344Z,5.86
2017-01-11T09:07:59.496Z,5.86
2017-01-11T09:09:04.708Z,5.86
2017-01-11T09:10:10.874Z,5.85
2017-01-11T09:11:17.041Z,5.77
2017-01-11T09:12:22.250Z,5.85
2017-01-11T09:13:28.421Z,5.78
2017-01-11T09:14:33.618Z,5.78
2017-01-11T09:15:38.855Z,5.78
2017-01-11T09:16:44.993Z,5.78
2017-01-11T09:17:50.200Z,5.78
2017-01-11T09:18:55.397Z,5.71
2017-01-11T09:20:01.555Z,5.73
2017-01-11T09:21:07.720Z,5.68
2017-01-11T09:22:13.924Z,5.6
2017-01-11T09:23:19.067Z,5.59
2017-01-11T09:24:25.287Z,5.57
2017-01-11T09:25:31.418Z,5.6
2017-01-11T09:26:36.635Z,5.45
2017-01-11T09:27:41.812Z,5.56
2017-01-11T09:28:47.011Z,5.49
2017-01-11T09:29:53.226Z,5.49
2017-01-11T09:30:59.405Z,5.48
2017-01-11T09:32:05.570Z,5.48
2017-01-11T09:33:11.808Z,5.5
2017-01-11T09:34:17.978Z,5.4
2017-01-11T09:35:24.167Z,5.41
2017-01-11T09:36:29.369Z,5.43
2017-01-11T09:37:34.618Z,5.5
2017-01-11T09:38:40.789Z,5.48
2017-01-11T09:39:45.989Z,5.53
2017-01-11T09:40:52.156Z,5.43
2017-01-11T09:41:57.353Z,5.5
2017-01-11T09:43:03.528Z,5.45
2017-01-11T09:44:09.798Z,5.48
2017-01-11T09:45:15.936Z,5.45
2017-01-11T09:46:22.111Z,5.49
2017-01-11T09:47:27.295Z,5.52
2017-01-11T09:48:33.468Z,5.46
2017-01-11T09:49:38.665Z,5.53
2017-01-11T09:50:44.830Z,5.49
2017-01-11T09:51:51.012Z,5.5
2017-01-11T09:52:57.174Z,5.48
2017-01-11T09:54:03.338Z,5.45
2017-01-11T09:55:09.505Z,5.41
2017-01-11T09:56:15.791Z,5.34
2017-01-11T09:57:21.963Z,5.48
2017-01-11T09:58:27.163Z,5.55
2017-01-11T09:59:33.333Z,5.56
2017-01-11T10:00:39.500Z,5.59
2017-01-11T10:01:44.858Z,5.48
2017-01-11T10:02:50.252Z,5.5
2017-01-11T10:03:56.488Z,5.53
2017-01-11T10:05:02.652Z,5.56
2017-01-11T10:06:08.824Z,5.56
2017-01-11T10:07:15.009Z,5.55
2017-01-11T10:08:20.209Z,5.56
2017-01-11T10:09:24.399Z,5.53
2017-01-11T10:10:29.588Z,5.49
2017-01-11T10:11:34.797Z,5.45
2017-01-11T10:12:39.985Z,5.53
2017-01-11T10:13:44.186Z,5.55
2017-01-11T10:14:49.388Z,5.5
2017-01-11T10:15:55.553Z,5.52
2017-01-11T10:17:00.725Z,5.49
2017-01-11T10:18:05.890Z,5.53
2017-01-11T10:19:11.083Z,5.56
2017-01-11T10:20:17.248Z,5.56
2017-01-11T10:21:23.422Z,5.53
2017-01-11T10:22:29.580Z,5.5
2017-01-11T10:23:34.766Z,5.6
2017-01-11T10:24:40.945Z,5.55
2017-01-11T10:25:47.096Z,5.6
2017-01-11T10:26:53.267Z,5.57
2017-01-11T10:27:58.472Z,5.64
2017-01-11T10:29:03.672Z,5.64
2017-01-11T10:30:09.894Z,5.64
2017-01-11T10:31:15.094Z,5.63
2017-01-11T10:32:20.273Z,5.64
2017-01-11T10:33:26.446Z,5.67
2017-01-11T10:34:30.652Z,5.73
2017-01-11T10:35:36.871Z,5.67
2017-01-11T10:36:42.037Z,5.75
2017-01-11T10:37:48.202Z,5.73
2017-01-11T10:38:52.448Z,5.73
2017-01-11T10:39:56.689Z,5.74
2017-01-11T10:41:00.898Z,5.71
2017-01-11T10:42:05.120Z,5.74
2017-01-11T10:43:10.357Z,5.68
2017-01-11T10:44:15.547Z,5.74
2017-01-11T10:45:21.742Z,5.74
2017-01-11T10:46:26.912Z,5.74
2017-01-11T10:47:32.115Z,5.81
2017-01-11T10:48:35.385Z,5.82
2017-01-11T10:49:41.569Z,5.85
2017-01-11T10:50:46.772Z,5.77
2017-01-11T10:51:51.980Z,5.78
2017-01-11T10:52:57.183Z,5.82
2017-01-11T10:54:01.379Z,5.77
2017-01-11T10:55:06.576Z,5.82
2017-01-11T10:56:11.785Z,5.83
2017-01-11T10:57:17.951Z,5.78
2017-01-11T10:58:23.151Z,5.82
2017-01-11T10:59:26.390Z,5.78
2017-01-11T11:00:31.600Z,5.73
2017-01-11T11:01:36.799Z,5.75
2017-01-11T11:02:41.992Z,5.82
2017-01-11T11:03:46.196Z,5.77
2017-01-11T11:04:51.398Z,5.78
2017-01-11T11:05:57.599Z,5.78
2017-01-11T11:07:03.734Z,5.81
2017-01-11T11:08:07.941Z,5.81
2017-01-11T11:09:14.097Z,5.85
2017-01-11T11:10:18.345Z,5.91
2017-01-11T11:11:22.575Z,5.83
2017-01-11T11:12:27.783Z,5.92
2017-01-11T11:14:37.190Z,6
2017-01-11T11:15:40.427Z,6
2017-01-11T11:16:43.668Z,6.01
2017-01-11T11:17:48.525Z,6.04
2017-01-11T11:18:53.725Z,6
2017-01-11T11:19:57.922Z,6.04
2017-01-11T11:21:03.123Z,6.01
2017-01-11T11:22:08.324Z,6
2017-01-11T11:23:13.526Z,6.09
2017-01-11T11:24:18.728Z,6.13
2017-01-11T11:25:24.926Z,6.11
2017-01-11T11:26:30.084Z,6.11
2017-01-11T11:27:35.283Z,6.19
2017-01-11T11:28:40.482Z,6.28
2017-01-11T11:29:46.771Z,6.21
2017-01-11T11:30:52.587Z,6.16
2017-01-11T11:31:57.767Z,6.22
2017-01-11T11:33:02.979Z,6.3
2017-01-11T11:34:09.185Z,6.29
2017-01-11T11:35:15.356Z,6.28
2017-01-11T11:36:20.587Z,6.28
2017-01-11T11:37:23.859Z,6.3
2017-01-11T11:38:29.061Z,6.28
2017-01-11T11:39:33.293Z,6.33
2017-01-11T11:40:39.468Z,6.41
2017-01-11T11:41:45.636Z,6.44
2017-01-11T11:42:51.860Z,6.33
2017-01-11T11:43:57.097Z,6.47
2017-01-11T11:45:03.276Z,6.46
2017-01-11T11:46:09.442Z,6.47
2017-01-11T11:47:15.606Z,6.51
2017-01-11T11:48:19.812Z,6.41
2017-01-11T11:49:24.119Z,6.48
2017-01-11T11:50:29.319Z,6.53
2017-01-11T11:51:35.483Z,6.59
2017-01-11T11:52:40.682Z,6.53
2017-01-11T11:53:46.863Z,6.59
2017-01-11T11:54:52.101Z,6.61
2017-01-11T11:55:58.272Z,6.63
2017-01-11T11:57:03.439Z,6.71
2017-01-11T11:58:08.607Z,6.72
2017-01-11T11:59:11.844Z,6.62
2017-01-11T12:00:18.022Z,6.65
2017-01-11T12:01:24.185Z,6.66
2017-01-11T12:02:29.361Z,6.68
2017-01-11T12:03:33.604Z,6.66
2017-01-11T12:04:38.782Z,6.71
2017-01-11T12:05:43.978Z,6.69
2017-01-11T12:06:50.204Z,6.8
2017-01-11T12:07:55.409Z,6.72
2017-01-11T12:09:01.355Z,6.71
2017-01-11T12:10:06.558Z,6.89
2017-01-11T12:11:10.764Z,6.84
2017-01-11T12:12:14.975Z,6.81
2017-01-11T12:13:20.204Z,6.83
2017-01-11T12:14:24.395Z,6.8
2017-01-11T12:15:29.600Z,6.86
2017-01-11T12:16:35.807Z,6.84
2017-01-11T12:17:41.981Z,6.91
2017-01-11T12:18:48.261Z,7.01
2017-01-11T12:19:54.425Z,6.91
2017-01-11T12:20:59.626Z,7.04
2017-01-11T12:22:04.826Z,7.04
2017-01-11T12:23:10.022Z,7.09
2017-01-11T12:24:16.199Z,6.95
2017-01-11T12:25:21.398Z,7.09
2017-01-11T12:26:27.627Z,7.16
2017-01-11T12:27:31.894Z,7.16
2017-01-11T12:28:38.026Z,7.22
2017-01-11T12:29:43.222Z,7.2
2017-01-11T12:30:48.423Z,7.22
2017-01-11T12:31:54.595Z,7.38
2017-01-11T12:32:59.795Z,7.38
2017-01-11T12:34:05.958Z,7.38
2017-01-11T12:35:12.157Z,7.53
2017-01-11T12:36:15.363Z,7.52
2017-01-11T12:37:20.592Z,7.5
2017-01-11T12:38:26.846Z,7.53
2017-01-11T12:39:30.076Z,7.56
2017-01-11T12:40:33.453Z,7.58
2017-01-11T12:41:39.061Z,7.62
2017-01-11T12:42:44.203Z,7.74
2017-01-11T12:43:50.370Z,7.75
2017-01-11T12:44:56.572Z,7.69
2017-01-11T12:46:02.749Z,7.69
2017-01-11T12:47:08.883Z,7.81
2017-01-11T12:48:15.054Z,7.79
2017-01-11T12:49:21.223Z,7.89
2017-01-11T12:50:25.437Z,7.84
2017-01-11T12:51:30.660Z,7.84
2017-01-11T12:52:36.832Z,7.79
2017-01-11T12:53:42.034Z,7.82
2017-01-11T12:54:48.206Z,7.92
2017-01-11T12:55:54.368Z,7.87
2017-01-11T12:57:00.538Z,7.85
2017-01-11T12:58:05.747Z,7.89
2017-01-11T12:59:09.947Z,7.9
2017-01-11T13:00:15.163Z,7.89
2017-01-11T13:01:21.337Z,7.99
2017-01-11T13:02:27.514Z,8.02
2017-01-11T13:03:33.701Z,8.03
2017-01-11T13:04:38.899Z,8.02
2017-01-11T13:05:45.098Z,8.12
2017-01-11T13:06:51.250Z,8.04
2017-01-11T13:07:55.448Z,8.21
2017-01-11T13:09:01.624Z,8.11
2017-01-11T13:10:05.854Z,8.14
2017-01-11T13:11:10.094Z,8.17
2017-01-11T13:12:15.262Z,8.14
2017-01-11T13:13:18.617Z,8.1
2017-01-11T13:14:22.800Z,8.07
2017-01-11T13:15:28.964Z,8.08
2017-01-11T13:16:34.210Z,8.03
2017-01-11T13:17:40.338Z,8.07
2017-01-11T13:18:44.561Z,8.03
2017-01-11T13:19:50.819Z,8.03
2017-01-11T13:20:56.986Z,8.07
2017-01-11T13:22:03.141Z,8.12
2017-01-11T13:23:08.352Z,8.2
2017-01-11T13:24:11.585Z,8.11
2017-01-11T13:25:15.831Z,8.2
2017-01-11T13:26:19.070Z,8.26
2017-01-11T13:27:22.441Z,8.26
2017-01-11T13:28:25.709Z,8.29
2017-01-11T13:29:30.911Z,8.28
2017-01-11T13:30:37.082Z,8.26
2017-01-11T13:31:40.358Z,8.36
2017-01-11T13:32:45.562Z,8.37
2017-01-11T13:33:50.808Z,8.37
2017-01-11T13:34:56.985Z,8.4
2017-01-11T13:36:02.143Z,8.39
2017-01-11T13:37:07.353Z,8.4
2017-01-11T13:38:12.563Z,8.36
2017-01-11T13:39:18.731Z,8.36
2017-01-11T13:40:21.993Z,8.37
2017-01-11T13:41:28.157Z,8.32
2017-01-11T13:42:33.327Z,8.26
2017-01-11T13:43:38.522Z,8.29
2017-01-11T13:44:43.741Z,8.28
2017-01-11T13:45:48.944Z,8.29
2017-01-11T13:46:55.121Z,8.22
2017-01-11T13:48:00.326Z,8.14
2017-01-11T13:49:05.537Z,8.2
2017-01-11T13:50:11.809Z,8.26
2017-01-11T13:51:15.047Z,8.26
2017-01-11T13:52:19.290Z,8.2
2017-01-11T13:53:24.492Z,8.15
2017-01-11T13:54:29.699Z,8.14
2017-01-11T13:55:35.868Z,8.17
2017-01-11T13:56:41.077Z,8.18
2017-01-11T13:57:46.279Z,8.21
2017-01-11T13:58:50.504Z,8.21
2017-01-11T13:59:55.708Z,8.26
2017-01-11T14:01:00.922Z,8.21
2017-01-11T14:02:05.144Z,8.29
2017-01-11T14:03:11.317Z,8.28
2017-01-11T14:04:15.527Z,8.29
2017-01-11T14:05:20.732Z,8.26
2017-01-11T14:06:26.920Z,8.32
2017-01-11T14:07:32.098Z,8.35
2017-01-11T14:08:38.273Z,8.36
2017-01-11T14:09:43.517Z,8.39
2017-01-11T14:10:48.723Z,8.37
2017-01-11T14:11:52.930Z,8.3
2017-01-11T14:12:58.139Z,8.29
2017-01-11T14:14:03.329Z,8.33
2017-01-11T14:15:07.568Z,8.39
2017-01-11T14:16:12.762Z,8.29
2017-01-11T14:17:17.963Z,8.22
2017-01-11T14:18:22.498Z,8.33
2017-01-11T14:19:25.767Z,8.36
2017-01-11T14:20:30.972Z,8.39
2017-01-11T14:21:36.174Z,8.3
2017-01-11T14:22:41.358Z,8.35
2017-01-11T14:23:46.622Z,8.3
2017-01-11T14:24:50.840Z,8.29
2017-01-11T14:25:57.011Z,8.26
2017-01-11T14:27:02.261Z,8.26
2017-01-11T14:28:07.487Z,8.29
2017-01-11T14:29:12.706Z,8.26
2017-01-11T14:30:16.880Z,8.29
2017-01-11T14:31:21.117Z,8.26
2017-01-11T14:32:26.289Z,8.25
2017-01-11T14:33:32.562Z,8.25
2017-01-11T14:34:38.736Z,8.26
2017-01-11T14:35:43.025Z,8.15
2017-01-11T14:36:47.213Z,8.26
2017-01-11T14:37:53.380Z,8.18